Time;durP1;ratioP1;P1;durP2;ratioP2;P2;SDS_P1;SDS_P2;PMS_P1;PMS_P2;Temp;Humidity;BMP_temperature;BMP_pressure;BME280_temperature;BME280_humidity;BME280_pressure;Samples;Min_cycle;Max_cycle;Signal;HPM_P1;HPM_P2
2023/10/15 00:00:57;;;;;;;9.57;1.23;;;8.50;99.90;;;;;;4991055;28;20068;-89
2023/10/15 00:03:23;;;;;;;9.82;1.10;;;8.00;99.90;;;;;;4979156;28;20506;-88
2023/10/15 00:05:48;;;;;;;8.75;1.27;;;8.00;99.90;;;;;;4986989;28;20018;-89
2023/10/15 00:08:14;;;;;;;8.45;1.25;;;8.00;99.90;;;;;;5010657;28;20069;-89
2023/10/15 00:10:40;;;;;;;7.22;1.13;;;8.10;99.90;;;;;;4991364;28;20058;-90
2023/10/15 00:13:05;;;;;;;6.38;1.40;;;8.00;99.90;;;;;;4975489;28;20064;-89
2023/10/15 00:15:31;;;;;;;7.50;1.13;;;8.00;99.90;;;;;;4992959;28;20038;-89
2023/10/15 00:18:00;;;;;;;10.55;1.40;;;8.00;99.90;;;;;;4976496;28;20049;-88
2023/10/15 00:20:31;;;;;;;10.18;1.67;;;7.90;99.90;;;;;;4980431;28;20041;-88
2023/10/15 00:23:04;;;;;;;6.22;1.40;;;8.00;99.90;;;;;;4979913;28;20042;-90
2023/10/15 00:25:37;;;;;;;7.53;1.40;;;8.00;99.90;;;;;;4976725;28;20058;-89
2023/10/15 00:28:05;;;;;;;9.43;1.80;;;8.00;99.90;;;;;;4974307;28;20418;-89
2023/10/15 00:30:32;;;;;;;14.65;1.50;;;8.00;99.90;;;;;;4985832;28;20061;-89
2023/10/15 00:32:59;;;;;;;9.13;1.40;;;8.00;99.90;;;;;;4974599;28;20042;-89
2023/10/15 00:35:27;;;;;;;7.13;1.15;;;8.00;99.90;;;;;;4975160;28;20486;-90
2023/10/15 00:37:56;;;;;;;6.22;1.70;;;7.90;99.90;;;;;;4976651;28;20486;-89
2023/10/15 00:40:23;;;;;;;6.75;1.52;;;7.90;99.90;;;;;;4977602;28;20052;-89
2023/10/15 00:42:49;;;;;;;7.80;1.13;;;7.90;99.90;;;;;;4976856;28;20409;-89
2023/10/15 00:45:19;;;;;;;12.43;1.40;;;7.90;99.90;;;;;;4976229;28;20046;-88
2023/10/15 00:48:07;;;;;;;11.02;1.63;;;7.90;99.90;;;;;;4991807;28;20041;-89
2023/10/15 00:50:39;;;;;;;7.75;1.50;;;7.90;99.90;;;;;;4982933;28;20061;-89
2023/10/15 00:53:24;;;;;;;6.57;1.00;;;7.90;99.90;;;;;;4985327;28;20406;-89
2023/10/15 00:56:04;;;;;;;7.28;1.80;;;7.90;99.90;;;;;;4973098;28;20073;-89
2023/10/15 00:58:32;;;;;;;10.95;1.35;;;7.80;99.90;;;;;;4970298;28;20426;-88
2023/10/15 01:03:57;;;;;;;10.63;1.63;;;7.90;99.90;;;;;;4985973;28;20054;-88
2023/10/15 01:06:35;;;;;;;9.13;1.48;;;7.80;99.90;;;;;;4975007;28;20057;-88
2023/10/15 01:09:27;;;;;;;6.88;1.20;;;7.80;99.90;;;;;;4989016;28;20038;-87
2023/10/15 01:11:57;;;;;;;8.88;1.60;;;7.80;99.90;;;;;;4976241;28;20121;-88
2023/10/15 01:14:37;;;;;;;8.15;1.23;;;7.80;99.90;;;;;;4974571;28;20132;-89
2023/10/15 01:17:05;;;;;;;7.50;1.42;;;7.70;99.90;;;;;;4974603;28;20049;-89
2023/10/15 01:19:33;;;;;;;5.43;1.35;;;7.70;99.90;;;;;;4975163;28;21371;-89
2023/10/15 01:22:09;;;;;;;10.52;1.38;;;8.30;99.90;;;;;;4975680;28;20100;-89
2023/10/15 01:24:37;;;;;;;5.65;0.80;;;7.70;99.90;;;;;;4982804;28;20077;-89
2023/10/15 01:27:10;;;;;;;11.80;1.20;;;8.20;99.90;;;;;;4969561;28;20069;-89
2023/10/15 01:29:41;;;;;;;9.45;1.55;;;8.40;99.90;;;;;;4970607;28;20042;-89
2023/10/15 01:32:19;;;;;;;7.88;1.02;;;7.70;99.90;;;;;;4974087;28;20046;-89
2023/10/15 01:34:45;;;;;;;9.75;1.30;;;7.60;99.90;;;;;;4972182;28;20076;-89
2023/10/15 01:37:24;;;;;;;8.48;1.30;;;7.60;99.90;;;;;;4974426;28;20057;-88
2023/10/15 01:40:00;;;;;;;5.78;1.17;;;8.00;99.90;;;;;;4975927;28;20044;-89
2023/10/15 01:47:44;;;;;;;9.27;1.20;;;7.60;99.90;;;;;;4990950;28;20383;-88
2023/10/15 01:50:15;;;;;;;6.32;1.00;;;7.60;99.90;;;;;;4975499;28;20406;-88
2023/10/15 01:52:44;;;;;;;9.65;1.70;;;7.60;99.90;;;;;;4989970;28;20103;-88
2023/10/15 01:55:12;;;;;;;7.15;1.00;;;7.60;99.90;;;;;;4989482;28;20054;-87
2023/10/15 01:57:39;;;;;;;7.50;1.02;;;7.70;99.90;;;;;;4971137;28;20033;-87
2023/10/15 02:00:13;;;;;;;9.07;1.20;;;7.60;99.90;;;;;;4985424;28;20544;-87
2023/10/15 02:02:41;;;;;;;7.43;1.33;;;7.60;99.90;;;;;;4970500;28;20050;-87
2023/10/15 02:05:16;;;;;;;5.50;1.30;;;7.60;99.90;;;;;;4987128;28;20046;-87
2023/10/15 02:07:44;;;;;;;5.10;0.95;;;7.60;99.90;;;;;;4967580;28;20133;-86
2023/10/15 02:10:13;;;;;;;6.22;1.05;;;7.60;99.90;;;;;;4988001;28;20045;-87
2023/10/15 02:12:40;;;;;;;6.70;1.20;;;7.50;99.90;;;;;;4972429;28;20034;-87
2023/10/15 02:15:14;;;;;;;8.48;1.20;;;7.60;99.90;;;;;;4975304;28;20053;-86
2023/10/15 02:17:43;;;;;;;8.45;1.35;;;7.50;99.90;;;;;;4989997;28;20129;-86
2023/10/15 02:20:12;;;;;;;9.18;1.58;;;7.50;99.90;;;;;;4987455;28;20049;-87
2023/10/15 02:22:38;;;;;;;11.07;1.15;;;7.60;99.90;;;;;;4990062;28;20052;-87
2023/10/15 02:25:04;;;;;;;8.80;1.52;;;8.10;99.90;;;;;;4974715;28;20063;-87
2023/10/15 02:27:35;;;;;;;10.35;1.50;;;7.50;99.90;;;;;;4974775;28;20038;-87
2023/10/15 02:30:01;;;;;;;8.73;1.20;;;7.50;99.90;;;;;;4990618;28;20529;-86
2023/10/15 02:34:54;;;;;;;10.32;1.15;;;7.50;99.90;;;;;;4988150;28;20124;-87
2023/10/15 02:37:27;;;;;;;7.43;1.10;;;7.50;99.90;;;;;;4974263;28;20073;-87
2023/10/15 02:39:59;;;;;;;4.18;1.10;;;7.50;99.90;;;;;;4973946;28;20045;-86
2023/10/15 02:42:33;;;;;;;6.13;1.13;;;8.60;99.90;;;;;;4988854;28;20046;-87
2023/10/15 02:44:58;;;;;;;7.25;1.05;;;7.50;99.90;;;;;;4976418;28;20103;-88
2023/10/15 02:47:29;;;;;;;9.20;1.58;;;7.60;99.90;;;;;;4977246;28;20041;-88
2023/10/15 02:50:03;;;;;;;5.85;1.20;;;7.50;99.90;;;;;;4977318;28;20073;-88
2023/10/15 02:52:43;;;;;;;8.38;1.10;;;7.50;99.90;;;;;;5005246;28;20033;-87
2023/10/15 02:55:10;;;;;;;5.53;0.80;;;7.50;99.90;;;;;;5016600;28;20094;-88
2023/10/15 02:57:41;;;;;;;3.30;0.70;;;8.30;99.90;;;;;;4996593;28;20136;-88
2023/10/15 03:00:51;;;;;;;2.97;0.70;;;7.80;99.90;;;;;;4983750;28;20129;-87
2023/10/15 03:03:09;;;;;;;3.45;0.70;;;7.50;99.90;;;;;;4981109;28;20104;-86
2023/10/15 03:05:42;;;;;;;3.58;0.50;;;8.10;99.90;;;;;;4973109;28;20498;-86
2023/10/15 03:08:16;;;;;;;3.03;0.75;;;7.50;99.90;;;;;;4972984;28;20040;-87
2023/10/15 03:10:46;;;;;;;3.25;0.70;;;7.40;99.90;;;;;;4987810;28;20050;-86
2023/10/15 03:13:14;;;;;;;1.42;0.50;;;7.40;99.90;;;;;;4972569;28;20049;-84
2023/10/15 03:15:48;;;;;;;3.33;0.80;;;7.40;99.90;;;;;;4975774;28;20045;-86
2023/10/15 03:18:23;;;;;;;2.08;0.57;;;7.40;99.90;;;;;;4976079;28;20038;-85
2023/10/15 03:21:14;;;;;;;4.35;0.60;;;7.40;99.90;;;;;;4991295;28;20052;-87
2023/10/15 03:23:39;;;;;;;4.05;0.70;;;8.20;99.90;;;;;;4990403;28;20164;-86
2023/10/15 03:26:05;;;;;;;4.72;0.70;;;7.40;99.90;;;;;;4985854;28;20057;-87
2023/10/15 03:28:34;;;;;;;4.05;0.60;;;7.30;99.90;;;;;;4990833;28;20037;-85
2023/10/15 03:31:00;;;;;;;2.75;0.50;;;7.30;99.90;;;;;;4991955;28;20084;-86
2023/10/15 03:33:30;;;;;;;5.28;0.65;;;7.70;99.90;;;;;;4992288;28;20439;-86
2023/10/15 03:35:56;;;;;;;5.50;0.60;;;7.30;99.90;;;;;;4976722;28;20097;-81
2023/10/15 03:38:24;;;;;;;4.82;0.73;;;7.80;99.90;;;;;;4990990;28;20258;-82
2023/10/15 03:40:51;;;;;;;6.07;0.80;;;7.30;99.90;;;;;;4974624;28;20046;-81
2023/10/15 03:43:24;;;;;;;3.53;0.63;;;7.30;99.90;;;;;;4970138;28;20466;-81
2023/10/15 03:45:51;;;;;;;2.22;0.50;;;7.30;99.90;;;;;;4989699;28;20053;-81
2023/10/15 03:48:29;;;;;;;3.63;0.52;;;7.30;99.90;;;;;;4974883;28;20057;-80
2023/10/15 03:50:56;;;;;;;2.63;0.60;;;7.60;99.90;;;;;;4988332;28;20129;-81
2023/10/15 03:53:30;;;;;;;4.32;0.95;;;8.00;99.90;;;;;;4975257;28;20131;-81
2023/10/15 03:55:57;;;;;;;1.77;0.40;;;7.60;99.90;;;;;;4973148;28;20160;-81
2023/10/15 03:58:24;;;;;;;3.20;0.50;;;7.90;99.90;;;;;;4972422;28;20050;-81
2023/10/15 04:01:02;;;;;;;3.35;0.70;;;7.60;99.90;;;;;;4972455;28;20375;-81
2023/10/15 04:03:28;;;;;;;4.07;0.60;;;8.10;99.90;;;;;;4970557;28;20090;-81
2023/10/15 04:06:01;;;;;;;3.08;0.57;;;7.30;99.90;;;;;;4974377;28;20049;-81
2023/10/15 04:08:32;;;;;;;3.60;0.47;;;7.70;99.90;;;;;;4967221;28;20041;-82
2023/10/15 04:10:58;;;;;;;1.88;0.45;;;7.30;99.90;;;;;;4973299;28;20245;-82
2023/10/15 04:13:27;;;;;;;2.38;0.35;;;7.60;99.90;;;;;;4990267;28;20045;-82
2023/10/15 04:15:54;;;;;;;1.73;0.40;;;7.30;99.90;;;;;;4991736;28;20046;-81
2023/10/15 04:18:24;;;;;;;1.27;0.40;;;7.70;99.90;;;;;;4978264;28;20107;-82
2023/10/15 04:20:52;;;;;;;3.53;0.68;;;7.30;99.90;;;;;;4982651;28;20054;-82
2023/10/15 04:23:34;;;;;;;2.95;0.45;;;7.20;99.90;;;;;;4981324;28;20330;-82
2023/10/15 04:26:07;;;;;;;4.00;0.50;;;7.60;99.90;;;;;;4987703;28;20065;-82
2023/10/15 04:28:34;;;;;;;2.63;0.40;;;7.50;99.90;;;;;;4978788;28;20042;-82
2023/10/15 04:31:00;;;;;;;3.60;0.50;;;7.20;99.90;;;;;;4994632;28;20065;-80
2023/10/15 04:33:30;;;;;;;5.25;0.88;;;7.30;99.90;;;;;;4976590;28;20415;-81
2023/10/15 04:35:59;;;;;;;4.00;0.50;;;7.30;99.90;;;;;;4974491;28;20053;-81
2023/10/15 04:38:28;;;;;;;3.60;0.50;;;7.20;99.90;;;;;;4970485;28;20118;-81
2023/10/15 04:43:25;;;;;;;2.67;0.50;;;7.20;99.90;;;;;;4987852;28;20470;-81
2023/10/15 04:45:55;;;;;;;2.22;0.50;;;7.20;99.90;;;;;;4971397;28;20064;-81
2023/10/15 04:48:29;;;;;;;2.47;0.50;;;7.20;99.90;;;;;;4986551;28;20096;-81
2023/10/15 04:51:01;;;;;;;5.55;0.63;;;7.20;99.90;;;;;;4982851;28;20046;-81
2023/10/15 04:53:30;;;;;;;2.58;0.55;;;7.20;99.90;;;;;;4987522;28;20129;-81
2023/10/15 04:55:57;;;;;;;5.35;0.52;;;7.10;99.90;;;;;;4969077;28;20143;-84
2023/10/15 04:58:27;;;;;;;3.05;0.80;;;7.10;99.90;;;;;;4988486;28;20465;-82
2023/10/15 05:00:54;;;;;;;3.65;0.60;;;7.10;99.90;;;;;;4969390;28;20542;-82
2023/10/15 05:03:21;;;;;;;4.07;0.77;;;7.10;99.90;;;;;;4969547;28;20046;-82
2023/10/15 05:05:47;;;;;;;5.55;0.77;;;7.00;99.90;;;;;;4971104;28;20557;-81
2023/10/15 05:08:13;;;;;;;4.63;0.70;;;7.00;99.90;;;;;;4987041;28;20137;-81
2023/10/15 05:10:52;;;;;;;5.38;0.80;;;7.00;99.90;;;;;;4971512;28;20442;-81
2023/10/15 05:13:19;;;;;;;2.63;0.50;;;7.00;99.90;;;;;;4983635;28;20052;-81
2023/10/15 05:15:48;;;;;;;3.28;0.70;;;6.90;99.90;;;;;;4985730;28;20447;-81
2023/10/15 05:18:15;;;;;;;4.60;0.68;;;7.00;99.90;;;;;;5002995;28;20116;-81
2023/10/15 05:20:47;;;;;;;6.63;0.90;;;7.00;99.90;;;;;;5006682;28;20206;-82
2023/10/15 05:23:13;;;;;;;6.45;0.73;;;8.10;99.90;;;;;;4986621;28;20139;-81
2023/10/15 05:25:39;;;;;;;3.78;0.70;;;7.60;99.90;;;;;;4985596;28;20061;-77
2023/10/15 05:28:06;;;;;;;6.88;1.20;;;7.00;99.90;;;;;;4999150;28;20691;-78
2023/10/15 05:30:32;;;;;;;5.72;1.10;;;6.90;99.90;;;;;;4984858;28;20372;-77
2023/10/15 05:33:01;;;;;;;8.40;1.00;;;7.00;99.90;;;;;;4987141;28;20061;-78
2023/10/15 05:35:30;;;;;;;7.10;1.30;;;7.20;99.90;;;;;;4986671;28;20133;-77
2023/10/15 05:37:56;;;;;;;5.60;1.13;;;7.00;99.90;;;;;;4985685;28;20046;-78
2023/10/15 05:40:21;;;;;;;6.07;1.30;;;7.00;99.90;;;;;;4986525;28;20318;-77
2023/10/15 05:42:48;;;;;;;5.13;1.00;;;6.90;99.90;;;;;;4967544;28;20371;-78
2023/10/15 05:45:14;;;;;;;6.20;0.90;;;6.90;99.90;;;;;;4988084;28;20050;-78
2023/10/15 05:47:42;;;;;;;5.95;1.05;;;6.90;99.90;;;;;;4971022;28;20572;-78
2023/10/15 05:50:08;;;;;;;4.63;0.73;;;6.90;99.90;;;;;;4969892;28;20418;-77
2023/10/15 05:52:34;;;;;;;8.20;0.90;;;6.90;99.90;;;;;;4969737;28;20045;-77
2023/10/15 05:55:01;;;;;;;7.00;0.68;;;6.90;99.90;;;;;;4983302;28;20042;-77
2023/10/15 05:57:28;;;;;;;2.95;0.70;;;6.90;99.90;;;;;;4971564;28;20057;-77
2023/10/15 05:59:57;;;;;;;5.70;0.80;;;6.90;99.90;;;;;;4970244;28;20471;-77
2023/10/15 06:02:23;;;;;;;10.18;1.10;;;6.90;99.90;;;;;;4982057;28;20058;-77
2023/10/15 06:04:48;;;;;;;5.97;1.85;;;6.90;99.90;;;;;;4985717;28;20042;-77
2023/10/15 06:07:15;;;;;;;2.40;0.75;;;6.90;99.90;;;;;;4988227;28;20481;-78
2023/10/15 06:09:44;;;;;;;4.47;0.75;;;6.90;99.90;;;;;;4970200;28;20046;-77
2023/10/15 06:12:10;;;;;;;4.38;0.80;;;7.10;99.90;;;;;;4969658;28;20492;-77
2023/10/15 06:14:36;;;;;;;4.50;0.57;;;7.00;99.90;;;;;;4962445;28;20223;-78
2023/10/15 06:17:03;;;;;;;5.68;1.23;;;6.90;99.90;;;;;;4968907;28;20517;-78
2023/10/15 06:19:31;;;;;;;5.47;0.80;;;7.00;99.90;;;;;;4965317;28;20046;-77
2023/10/15 06:21:57;;;;;;;8.85;0.90;;;7.00;99.90;;;;;;4974489;28;20045;-78
2023/10/15 06:24:23;;;;;;;7.05;0.80;;;6.90;99.90;;;;;;4985826;28;20046;-77
2023/10/15 06:26:53;;;;;;;8.35;1.08;;;6.90;99.90;;;;;;4985392;28;20334;-77
2023/10/15 06:29:19;;;;;;;5.90;0.90;;;6.90;99.90;;;;;;4974868;28;20706;-76
2023/10/15 06:31:45;;;;;;;5.00;0.65;;;7.00;99.90;;;;;;4972887;28;20053;-77
2023/10/15 06:34:10;;;;;;;8.00;0.80;;;7.00;99.90;;;;;;4976633;28;20246;-77
2023/10/15 06:36:36;;;;;;;7.78;0.88;;;7.00;99.90;;;;;;4972651;28;20042;-76
2023/10/15 06:39:03;;;;;;;4.13;0.65;;;7.00;99.90;;;;;;4975392;28;20569;-77
2023/10/15 06:41:28;;;;;;;5.35;1.02;;;7.00;99.90;;;;;;4965240;28;20062;-76
2023/10/15 06:43:54;;;;;;;11.65;1.02;;;7.50;99.90;;;;;;4965273;28;20378;-76
2023/10/15 06:46:23;;;;;;;5.03;0.90;;;7.00;99.90;;;;;;4969152;28;20487;-76
2023/10/15 06:48:48;;;;;;;4.57;1.10;;;7.00;99.90;;;;;;4998666;28;20053;-77
2023/10/15 06:51:17;;;;;;;5.32;0.80;;;7.00;99.90;;;;;;4968552;28;20045;-76
2023/10/15 06:53:43;;;;;;;4.57;0.60;;;7.00;99.90;;;;;;4975377;28;20056;-77
2023/10/15 06:56:09;;;;;;;6.45;0.90;;;7.00;99.90;;;;;;4976000;28;20050;-77
2023/10/15 06:58:35;;;;;;;7.40;1.13;;;7.00;99.90;;;;;;4963701;28;20153;-77
2023/10/15 07:01:04;;;;;;;2.85;0.52;;;7.00;99.90;;;;;;4966394;28;20129;-78
2023/10/15 07:03:30;;;;;;;7.75;0.82;;;7.00;99.90;;;;;;4979072;28;20140;-77
2023/10/15 07:05:56;;;;;;;3.58;0.80;;;7.00;99.90;;;;;;4971564;28;20050;-77
2023/10/15 07:08:22;;;;;;;5.00;0.88;;;7.00;99.90;;;;;;4978014;28;20204;-77
2023/10/15 07:10:49;;;;;;;4.47;0.80;;;6.90;99.90;;;;;;4969995;28;20037;-78
2023/10/15 07:13:17;;;;;;;3.55;0.60;;;7.70;99.90;;;;;;4969924;28;20099;-76
2023/10/15 07:15:45;;;;;;;6.15;1.05;;;6.90;99.90;;;;;;4976982;28;20052;-77
2023/10/15 07:18:12;;;;;;;4.68;0.55;;;6.90;99.90;;;;;;4973179;28;20521;-77
2023/10/15 07:20:39;;;;;;;4.55;0.68;;;6.90;99.90;;;;;;4954490;28;20402;-77
2023/10/15 07:23:04;;;;;;;2.28;0.50;;;6.90;99.90;;;;;;4951896;28;20057;-77
2023/10/15 07:25:32;;;;;;;2.45;0.40;;;7.30;99.90;;;;;;4960900;28;20050;-78
2023/10/15 07:27:59;;;;;;;3.78;0.70;;;6.90;99.90;;;;;;4968910;28;20224;-78
2023/10/15 07:30:26;;;;;;;3.53;0.60;;;7.00;99.90;;;;;;4971717;28;20053;-77
2023/10/15 07:32:53;;;;;;;2.85;0.80;;;7.00;99.90;;;;;;4953961;28;20105;-77
2023/10/15 07:35:25;;;;;;;2.95;0.60;;;7.00;99.90;;;;;;4970521;28;20042;-78
2023/10/15 07:37:51;;;;;;;;;;;7.00;99.90;;;;;;4958310;28;20058;-77
2023/10/15 07:40:18;;;;;;;6.22;1.00;;;6.90;99.90;;;;;;4961669;28;19926;-77
2023/10/15 07:42:48;;;;;;;5.68;0.80;;;7.00;99.90;;;;;;4957444;28;20627;-78
2023/10/15 07:45:14;;;;;;;2.85;0.82;;;7.00;99.90;;;;;;4978507;28;20286;-76
2023/10/15 07:47:40;;;;;;;7.25;0.75;;;7.00;99.90;;;;;;4975310;28;20057;-77
2023/10/15 07:50:18;;;;;;;4.78;0.77;;;7.00;99.90;;;;;;4977051;28;20172;-76
2023/10/15 07:52:45;;;;;;;4.80;1.05;;;7.00;99.90;;;;;;4983879;28;20579;-76
2023/10/15 07:55:12;;;;;;;5.93;1.00;;;7.00;99.90;;;;;;4963023;28;20045;-77
2023/10/15 07:57:37;;;;;;;6.10;0.82;;;7.00;99.90;;;;;;4974067;28;20168;-76
2023/10/15 08:00:09;;;;;;;5.20;1.42;;;7.00;99.90;;;;;;4958716;28;20049;-76
2023/10/15 08:02:35;;;;;;;3.33;0.75;;;7.00;99.90;;;;;;4971131;28;20592;-76
2023/10/15 08:05:01;;;;;;;5.88;0.90;;;7.10;99.90;;;;;;4981299;28;20054;-77
2023/10/15 08:07:28;;;;;;;5.05;1.05;;;7.10;99.90;;;;;;4978379;28;20046;-77
2023/10/15 08:09:54;;;;;;;6.75;0.95;;;7.10;99.90;;;;;;4981821;28;20072;-79
2023/10/15 08:12:21;;;;;;;7.20;0.70;;;7.20;99.90;;;;;;4968131;28;20564;-77
2023/10/15 08:14:47;;;;;;;5.13;0.98;;;7.20;99.90;;;;;;4977868;28;20187;-77
2023/10/15 08:17:16;;;;;;;4.68;0.80;;;7.30;99.90;;;;;;4959594;28;20148;-77
2023/10/15 08:19:42;;;;;;;4.78;0.90;;;7.50;99.90;;;;;;4977829;28;20422;-78
2023/10/15 08:22:08;;;;;;;5.07;0.90;;;7.30;99.90;;;;;;4975031;28;21604;-79
2023/10/15 08:24:35;;;;;;;5.43;0.90;;;7.60;99.90;;;;;;4979498;28;20056;-80
2023/10/15 08:27:01;;;;;;;6.28;1.00;;;7.50;99.90;;;;;;4982105;28;20153;-79
2023/10/15 08:29:26;;;;;;;6.35;1.30;;;7.40;99.90;;;;;;4963652;28;20046;-79
2023/10/15 08:31:52;;;;;;;7.47;1.00;;;7.40;99.90;;;;;;4958691;28;20085;-79
2023/10/15 08:34:18;;;;;;;6.53;1.05;;;7.40;99.90;;;;;;4980258;28;20373;-78
2023/10/15 08:36:44;;;;;;;6.47;1.02;;;7.40;99.90;;;;;;4982862;28;20049;-79
2023/10/15 08:39:09;;;;;;;7.35;0.88;;;7.90;99.90;;;;;;4982147;28;20161;-79
2023/10/15 08:41:38;;;;;;;7.15;1.30;;;7.40;99.90;;;;;;4961769;28;20038;-80
2023/10/15 08:44:07;;;;;;;4.22;0.90;;;7.40;99.90;;;;;;4984404;28;20779;-77
2023/10/15 08:46:37;;;;;;;7.95;1.27;;;7.40;99.90;;;;;;4963221;28;20725;-78
2023/10/15 08:49:14;;;;;;;11.85;1.30;;;7.40;99.90;;;;;;4982648;28;20038;-80
2023/10/15 08:51:43;;;;;;;6.57;0.80;;;7.50;99.90;;;;;;4964901;28;20038;-82
2023/10/15 08:54:12;;;;;;;9.45;0.93;;;7.60;99.90;;;;;;4963324;28;20046;-78
2023/10/15 08:56:38;;;;;;;5.78;1.00;;;7.70;99.90;;;;;;4960939;28;20050;-79
2023/10/15 08:59:09;;;;;;;7.25;1.13;;;7.80;99.90;;;;;;4978811;28;20042;-80
2023/10/15 09:01:36;;;;;;;7.73;1.23;;;7.80;99.90;;;;;;4986365;28;20061;-78
2023/10/15 09:04:04;;;;;;;4.85;1.17;;;7.90;99.90;;;;;;4975646;28;20039;-80
2023/10/15 09:06:31;;;;;;;9.70;1.50;;;7.90;99.90;;;;;;4979109;28;20072;-79
2023/10/15 09:08:56;;;;;;;8.15;1.20;;;8.00;99.90;;;;;;4986736;28;20123;-79
2023/10/15 09:11:22;;;;;;;5.53;1.10;;;8.20;99.90;;;;;;4989421;28;20526;-79
2023/10/15 09:13:52;;;;;;;8.70;1.20;;;8.10;99.90;;;;;;4976843;28;21572;-80
2023/10/15 09:16:21;;;;;;;12.23;1.40;;;8.10;99.90;;;;;;4972677;28;20046;-80
2023/10/15 09:18:47;;;;;;;7.38;1.10;;;8.20;99.90;;;;;;4953207;28;20046;-79
2023/10/15 09:21:23;;;;;;;8.68;1.00;;;8.20;99.90;;;;;;4968841;28;20176;-78
2023/10/15 09:23:51;;;;;;;5.90;1.27;;;8.20;99.90;;;;;;4950578;28;20467;-78
2023/10/15 09:26:17;;;;;;;7.20;0.80;;;8.20;99.90;;;;;;4953061;28;20192;-79
2023/10/15 09:28:43;;;;;;;4.55;0.90;;;8.20;99.90;;;;;;4969311;28;20061;-79
2023/10/15 09:31:10;;;;;;;5.63;1.30;;;8.40;99.90;;;;;;4953246;28;20045;-79
2023/10/15 09:33:37;;;;;;;3.67;0.70;;;8.60;99.90;;;;;;4970281;28;20075;-78
2023/10/15 09:36:06;;;;;;;5.65;0.82;;;8.20;99.90;;;;;;4969366;28;20061;-79
2023/10/15 09:38:32;;;;;;;6.40;0.93;;;8.20;99.90;;;;;;4951850;28;20565;-79
2023/10/15 09:41:01;;;;;;;4.65;1.30;;;8.30;99.90;;;;;;4970924;28;20060;-79
2023/10/15 09:43:36;;;;;;;5.50;0.63;;;8.30;99.90;;;;;;4959088;28;20092;-79
2023/10/15 09:46:03;;;;;;;6.20;0.77;;;8.30;99.90;;;;;;4957317;28;20330;-79
2023/10/15 09:48:29;;;;;;;5.50;0.93;;;8.30;99.90;;;;;;4961899;28;20065;-80
2023/10/15 09:50:59;;;;;;;4.75;0.98;;;8.40;99.90;;;;;;4978125;28;20449;-78
2023/10/15 09:53:28;;;;;;;6.57;1.00;;;8.40;99.90;;;;;;4959236;28;20049;-79
2023/10/15 09:55:57;;;;;;;7.72;0.88;;;8.50;99.90;;;;;;4976740;28;20252;-79
2023/10/15 09:58:24;;;;;;;8.95;1.17;;;8.60;99.90;;;;;;4969038;28;20402;-79
2023/10/15 10:03:47;;;;;;;9.80;1.33;;;8.50;99.90;;;;;;4969490;28;20119;-78
2023/10/15 10:06:48;;;;;;;11.07;1.20;;;8.50;99.90;;;;;;4969425;28;20426;-78
2023/10/15 10:09:39;;;;;;;9.75;1.00;;;8.50;99.90;;;;;;4913686;28;20460;-79
2023/10/15 10:12:34;;;;;;;3.83;0.80;;;8.50;99.90;;;;;;4965969;28;20085;-78
2023/10/15 10:15:02;;;;;;;4.75;0.55;;;8.60;99.90;;;;;;4930654;28;20309;-79
2023/10/15 10:17:29;;;;;;;4.82;1.02;;;8.70;99.90;;;;;;4974830;28;20874;-79
2023/10/15 10:19:55;;;;;;;4.20;0.55;;;8.70;99.90;;;;;;4950674;28;20108;-79
2023/10/15 10:22:24;;;;;;;2.72;0.40;;;9.30;99.90;;;;;;4975000;28;20057;-79
2023/10/15 10:24:53;;;;;;;3.45;0.60;;;8.80;99.90;;;;;;4959432;28;20160;-78
2023/10/15 10:27:19;;;;;;;4.18;0.70;;;8.80;99.90;;;;;;4974350;28;20141;-79
2023/10/15 10:29:52;;;;;;;3.63;0.60;;;8.70;99.90;;;;;;4967340;28;20037;-80
2023/10/15 10:32:20;;;;;;;2.35;0.40;;;8.70;99.90;;;;;;4991978;28;20082;-80
2023/10/15 10:35:22;;;;;;;2.30;0.60;;;8.70;99.90;;;;;;4968283;28;20042;-80
2023/10/15 10:38:10;;;;;;;2.15;0.47;;;8.70;99.90;;;;;;4981295;28;20242;-79
2023/10/15 10:40:47;;;;;;;2.95;0.60;;;8.80;99.90;;;;;;4967902;28;20069;-79
2023/10/15 10:43:27;;;;;;;4.85;1.42;;;8.80;99.90;;;;;;4984468;28;20056;-80
2023/10/15 10:46:00;;;;;;;3.85;0.60;;;8.80;99.90;;;;;;4982639;28;20270;-79
2023/10/15 10:48:33;;;;;;;3.33;0.70;;;8.90;99.90;;;;;;4978978;28;20104;-79
2023/10/15 10:51:11;;;;;;;4.68;0.68;;;9.00;99.90;;;;;;4991275;28;20679;-80
2023/10/15 10:53:58;;;;;;;8.13;1.00;;;9.20;99.90;;;;;;4991518;28;20390;-79
2023/10/15 10:56:44;;;;;;;4.05;0.85;;;9.30;99.90;;;;;;4994693;28;20282;-81
2023/10/15 10:59:14;;;;;;;5.20;0.80;;;9.20;99.90;;;;;;4982508;28;20050;-79
2023/10/15 11:01:46;;;;;;;4.68;0.60;;;9.30;99.90;;;;;;4972608;28;20037;-80
2023/10/15 11:04:21;;;;;;;5.60;0.95;;;9.30;99.90;;;;;;4984904;28;20046;-80
2023/10/15 11:06:48;;;;;;;6.03;0.95;;;9.40;99.90;;;;;;4975929;28;20502;-80
2023/10/15 11:09:15;;;;;;;11.60;1.00;;;9.40;99.90;;;;;;4988158;28;20045;-78
2023/10/15 11:11:45;;;;;;;3.40;0.80;;;9.40;99.90;;;;;;4990546;28;20053;-80
2023/10/15 11:14:12;;;;;;;5.07;0.87;;;9.40;99.90;;;;;;4989105;28;20054;-79
2023/10/15 11:16:40;;;;;;;5.97;0.80;;;9.60;99.90;;;;;;4977895;28;20050;-79
2023/10/15 11:19:25;;;;;;;6.43;1.10;;;9.50;99.90;;;;;;4990372;28;20179;-77
2023/10/15 11:21:53;;;;;;;6.43;0.98;;;9.60;99.90;;;;;;4979872;28;20151;-81
2023/10/15 11:24:23;;;;;;;5.20;1.50;;;9.60;99.90;;;;;;4973521;28;20061;-80
2023/10/15 11:26:49;;;;;;;8.05;1.33;;;9.70;99.90;;;;;;4975067;28;20108;-80
2023/10/15 11:29:19;;;;;;;9.50;1.30;;;9.70;99.90;;;;;;4987407;28;20042;-80
2023/10/15 11:31:47;;;;;;;5.90;1.10;;;9.80;99.90;;;;;;4990150;28;20041;-81
2023/10/15 11:34:19;;;;;;;8.38;1.10;;;9.90;99.90;;;;;;4971275;28;20185;-81
2023/10/15 11:36:48;;;;;;;2.78;0.50;;;9.90;99.90;;;;;;4971791;28;20057;-78
2023/10/15 11:39:19;;;;;;;4.00;0.80;;;10.00;99.90;;;;;;4966822;28;20042;-79
2023/10/15 11:41:52;;;;;;;8.50;1.20;;;10.00;99.90;;;;;;4985391;28;20069;-79
2023/10/15 11:44:26;;;;;;;5.72;0.75;;;10.30;99.90;;;;;;4971267;28;20103;-79
2023/10/15 11:46:53;;;;;;;7.80;0.88;;;9.90;99.90;;;;;;4987530;28;20050;-80
2023/10/15 11:49:22;;;;;;;10.70;1.25;;;9.90;99.90;;;;;;4970383;28;20045;-80
2023/10/15 11:51:55;;;;;;;6.88;0.70;;;9.80;99.90;;;;;;4980933;28;20057;-79
2023/10/15 11:54:27;;;;;;;5.60;1.08;;;9.80;99.90;;;;;;4967266;28;20046;-80
2023/10/15 11:56:54;;;;;;;7.82;1.45;;;9.70;99.90;;;;;;4983050;28;20049;-81
2023/10/15 11:59:24;;;;;;;8.18;1.13;;;9.70;99.90;;;;;;4969960;28;20046;-79
2023/10/15 12:01:53;;;;;;;7.47;0.97;;;9.70;99.90;;;;;;4981930;28;20140;-79
2023/10/15 12:04:19;;;;;;;7.07;0.90;;;9.70;99.90;;;;;;4966379;28;20046;-79
2023/10/15 12:06:46;;;;;;;7.45;1.02;;;9.70;99.90;;;;;;4966853;28;20053;-80
2023/10/15 12:09:14;;;;;;;9.50;1.23;;;9.80;99.90;;;;;;4996060;28;20049;-79
2023/10/15 12:11:40;;;;;;;9.35;1.50;;;9.80;99.90;;;;;;4966183;28;20034;-81
2023/10/15 12:14:06;;;;;;;6.30;1.63;;;9.90;99.90;;;;;;4980856;28;20341;-81
2023/10/15 12:16:34;;;;;;;9.23;1.00;;;9.90;99.90;;;;;;4962344;28;20049;-80
2023/10/15 12:18:59;;;;;;;7.10;1.00;;;10.10;99.90;;;;;;4984979;28;20106;-81
2023/10/15 12:21:25;;;;;;;8.23;1.17;;;10.00;99.90;;;;;;4961278;28;20053;-81
2023/10/15 12:23:51;;;;;;;10.52;1.30;;;9.90;99.90;;;;;;4976107;28;20139;-81
2023/10/15 12:26:18;;;;;;;5.88;1.08;;;9.90;99.90;;;;;;4977813;28;20453;-80
2023/10/15 12:28:47;;;;;;;6.60;0.80;;;10.20;99.90;;;;;;4962612;28;20169;-80
2023/10/15 12:31:13;;;;;;;5.25;0.93;;;9.90;99.90;;;;;;4964551;28;20050;-80
2023/10/15 12:33:39;;;;;;;6.53;0.90;;;10.20;99.90;;;;;;4965849;28;20123;-80
2023/10/15 12:36:09;;;;;;;2.35;0.55;;;9.80;99.90;;;;;;4976844;28;20049;-80
2023/10/15 12:38:39;;;;;;;6.40;0.88;;;9.80;99.90;;;;;;4968744;28;20049;-80
2023/10/15 12:41:05;;;;;;;7.30;1.00;;;10.00;99.90;;;;;;4982925;28;20252;-80
2023/10/15 12:43:32;;;;;;;6.20;0.95;;;10.10;99.90;;;;;;4952314;28;20265;-79
2023/10/15 12:45:58;;;;;;;5.93;0.93;;;9.80;99.90;;;;;;4949263;28;20085;-79
2023/10/15 12:48:23;;;;;;;7.53;0.75;;;9.90;99.90;;;;;;4969477;28;20181;-80
2023/10/15 12:50:51;;;;;;;5.90;0.65;;;9.90;99.90;;;;;;4973783;28;20064;-80
2023/10/15 12:53:17;;;;;;;6.07;0.98;;;10.00;99.90;;;;;;4977561;28;20152;-82
2023/10/15 12:55:43;;;;;;;7.78;1.33;;;10.00;99.90;;;;;;4957268;28;20336;-80
2023/10/15 12:58:10;;;;;;;8.80;1.13;;;10.00;99.90;;;;;;4953993;28;20053;-80
2023/10/15 13:00:43;;;;;;;11.73;1.30;;;10.40;99.90;;;;;;4972736;28;20107;-80
2023/10/15 13:03:10;;;;;;;9.50;1.10;;;10.00;99.90;;;;;;4972206;28;20054;-81
2023/10/15 13:05:36;;;;;;;11.35;1.75;;;10.00;99.90;;;;;;4970470;28;20723;-81
2023/10/15 13:08:03;;;;;;;5.60;1.00;;;10.20;99.90;;;;;;4975560;28;20604;-81
2023/10/15 13:10:29;;;;;;;10.40;1.60;;;10.00;99.90;;;;;;4965113;28;20050;-81
2023/10/15 13:12:57;;;;;;;8.63;1.85;;;10.00;99.90;;;;;;4972535;28;20053;-81
2023/10/15 13:15:22;;;;;;;10.05;1.33;;;10.00;99.90;;;;;;4953505;28;20060;-82
2023/10/15 13:17:49;;;;;;;8.93;1.38;;;10.20;99.90;;;;;;4956854;28;20046;-81
2023/10/15 13:20:17;;;;;;;9.10;2.00;;;10.00;99.90;;;;;;4958846;28;20042;-81
2023/10/15 13:22:43;;;;;;;6.68;1.30;;;10.00;99.90;;;;;;4955825;28;20045;-81